createdAt,value
2023-02-08T00:00:51.717Z,16.92
2023-02-08T00:03:18.252Z,16.48
2023-02-08T00:05:44.880Z,16.80
2023-02-08T00:08:11.259Z,16.90
2023-02-08T00:10:37.949Z,16.70
2023-02-08T00:13:04.673Z,16.83
2023-02-08T00:15:31.073Z,16.70
2023-02-08T00:17:57.514Z,17.17
2023-02-08T00:20:24.026Z,17.13
2023-02-08T00:22:52.481Z,16.52
2023-02-08T00:25:19.062Z,17.30
2023-02-08T00:27:45.502Z,16.10
2023-02-08T00:30:12.143Z,16.05
2023-02-08T00:32:38.861Z,15.57
2023-02-08T00:35:05.548Z,15.93
2023-02-08T00:37:31.987Z,15.85
2023-02-08T00:40:01.390Z,14.48
2023-02-08T00:42:28.294Z,15.50
2023-02-08T00:44:54.724Z,15.15
2023-02-08T00:47:21.139Z,13.93
2023-02-08T00:49:48.514Z,14.95
2023-02-08T00:52:14.996Z,14.38
2023-02-08T00:54:42.281Z,14.10
2023-02-08T00:57:09.162Z,15.18
2023-02-08T00:59:35.653Z,14.13
2023-02-08T01:02:02.081Z,14.23
2023-02-08T01:04:28.717Z,14.00
2023-02-08T01:06:55.134Z,14.65
2023-02-08T01:09:22.243Z,15.35
2023-02-08T01:11:49.511Z,14.77
2023-02-08T01:14:16.405Z,14.32
2023-02-08T01:16:43.186Z,14.18
2023-02-08T01:19:09.588Z,15.18
2023-02-08T01:21:38.939Z,15.25
2023-02-08T01:24:06.456Z,14.63
2023-02-08T01:26:33.417Z,14.52
2023-02-08T01:29:00.654Z,14.63
2023-02-08T01:31:30.152Z,14.35
2023-02-08T01:33:59.628Z,15.35
2023-02-08T01:36:27.598Z,15.10
2023-02-08T01:38:54.468Z,14.90
2023-02-08T01:41:28.125Z,14.27
2023-02-08T01:44:03.582Z,14.18
2023-02-08T01:46:33.388Z,14.13
2023-02-08T01:49:10.349Z,14.25
2023-02-08T01:51:45.465Z,13.27
2023-02-08T01:54:14.574Z,14.52
2023-02-08T01:56:45.592Z,13.90
2023-02-08T01:59:26.452Z,14.75
2023-02-08T02:01:56.184Z,15.25
2023-02-08T02:04:22.881Z,13.38
2023-02-08T02:06:53.310Z,14.18
2023-02-08T02:09:28.320Z,13.50
2023-02-08T02:11:55.885Z,14.75
2023-02-08T02:14:23.741Z,15.63
2023-02-08T02:16:50.288Z,14.52
2023-02-08T02:19:49.143Z,14.40
2023-02-08T02:22:31.171Z,13.68
2023-02-08T02:25:35.244Z,14.23
2023-02-08T02:31:01.676Z,14.50
2023-02-08T02:33:49.585Z,13.73
2023-02-08T02:36:32.616Z,13.60
2023-02-08T02:39:29.318Z,13.98
2023-02-08T02:42:30.051Z,14.50
2023-02-08T02:45:08.785Z,14.50
2023-02-08T02:47:46.640Z,14.95
2023-02-08T02:50:15.810Z,14.10
2023-02-08T02:53:07.086Z,15.02
2023-02-08T02:55:40.633Z,13.70
2023-02-08T02:58:10.579Z,14.57
2023-02-08T03:00:37.408Z,14.43
2023-02-08T03:03:03.958Z,14.55
2023-02-08T03:05:30.607Z,15.57
2023-02-08T03:08:23.279Z,14.82
2023-02-08T03:11:05.825Z,15.20
2023-02-08T03:13:39.908Z,15.87
2023-02-08T03:16:31.438Z,14.88
2023-02-08T03:19:07.084Z,15.00
2023-02-08T03:21:57.353Z,14.48
2023-02-08T03:24:40.383Z,15.60
2023-02-08T03:27:17.654Z,14.73
2023-02-08T03:29:44.049Z,14.73
2023-02-08T03:32:22.833Z,16.17
2023-02-08T03:35:15.480Z,14.50
2023-02-08T03:37:49.877Z,14.80
2023-02-08T03:40:21.540Z,15.38
2023-02-08T03:42:49.884Z,15.73
2023-02-08T03:45:25.049Z,15.30
2023-02-08T03:47:57.163Z,15.88
2023-02-08T03:50:24.229Z,15.30
2023-02-08T03:52:52.424Z,15.60
2023-02-08T03:55:24.686Z,15.57
2023-02-08T03:57:56.161Z,16.48
2023-02-08T04:00:23.596Z,15.35
2023-02-08T04:02:59.290Z,16.80
2023-02-08T04:05:25.899Z,15.95
2023-02-08T04:07:52.595Z,16.38
2023-02-08T04:10:19.350Z,15.95
2023-02-08T04:12:48.442Z,16.48
2023-02-08T04:15:15.371Z,15.77
2023-02-08T04:17:41.753Z,15.73
2023-02-08T04:20:08.992Z,17.20
2023-02-08T04:22:35.391Z,16.73
2023-02-08T04:25:01.798Z,16.88
2023-02-08T04:27:28.205Z,16.80
2023-02-08T04:29:54.602Z,16.23
2023-02-08T04:32:21.021Z,17.40
2023-02-08T04:34:47.389Z,18.52
2023-02-08T04:37:14.001Z,18.25
2023-02-08T04:39:40.488Z,17.08
2023-02-08T04:42:07.990Z,18.02
2023-02-08T04:44:34.428Z,16.95
2023-02-08T04:47:00.854Z,17.70
2023-02-08T04:49:27.401Z,18.13
2023-02-08T04:51:53.779Z,18.05
2023-02-08T04:54:20.270Z,17.88
2023-02-08T04:56:46.808Z,18.50
2023-02-08T04:59:13.209Z,18.00
2023-02-08T05:01:39.675Z,19.02
2023-02-08T05:04:06.095Z,18.90
2023-02-08T05:06:33.293Z,18.98
2023-02-08T05:08:59.656Z,19.05
2023-02-08T05:11:27.152Z,18.65
2023-02-08T05:13:53.652Z,19.55
2023-02-08T05:16:20.280Z,18.67
2023-02-08T05:18:46.804Z,19.67
2023-02-08T05:21:13.222Z,20.27
2023-02-08T05:23:39.635Z,19.33
2023-02-08T05:26:10.974Z,19.20
2023-02-08T05:28:38.030Z,18.77
2023-02-08T05:31:11.493Z,19.20
2023-02-08T05:33:37.961Z,19.10
2023-02-08T05:36:05.325Z,18.70
2023-02-08T05:38:31.861Z,18.63
2023-02-08T05:40:58.525Z,21.08
2023-02-08T05:43:24.959Z,19.23
2023-02-08T05:45:51.807Z,20.23
2023-02-08T05:48:18.600Z,20.35
2023-02-08T05:50:45.005Z,21.25
2023-02-08T05:53:14.272Z,20.50
2023-02-08T05:55:45.091Z,19.75
2023-02-08T05:58:12.335Z,21.35
2023-02-08T06:00:39.006Z,22.48
2023-02-08T06:03:06.208Z,21.25
2023-02-08T06:05:33.273Z,22.25
2023-02-08T06:07:59.722Z,19.92
2023-02-08T06:10:26.160Z,20.65
2023-02-08T06:12:52.518Z,21.27
2023-02-08T06:15:18.971Z,20.73
2023-02-08T06:17:45.361Z,21.90
2023-02-08T06:20:11.858Z,21.77
2023-02-08T06:22:38.320Z,22.75
2023-02-08T06:25:05.210Z,21.40
2023-02-08T06:27:31.656Z,21.65
2023-02-08T06:29:58.398Z,21.77
2023-02-08T06:32:25.987Z,22.02
2023-02-08T06:34:52.468Z,25.13
2023-02-08T06:37:19.280Z,24.05
2023-02-08T06:39:45.695Z,23.30
2023-02-08T06:42:12.467Z,23.15
2023-02-08T06:44:43.784Z,23.45
2023-02-08T06:47:17.926Z,23.55
2023-02-08T06:49:44.348Z,24.60
2023-02-08T06:52:10.775Z,24.95
2023-02-08T06:54:37.202Z,23.80
2023-02-08T06:57:03.775Z,25.45
2023-02-08T06:59:30.335Z,25.45
2023-02-08T07:01:57.209Z,26.25
2023-02-08T07:04:23.728Z,26.20
2023-02-08T07:06:50.180Z,29.05
2023-02-08T07:09:17.095Z,28.60
2023-02-08T07:11:43.893Z,29.45
2023-02-08T07:14:14.927Z,30.48
2023-02-08T07:16:41.757Z,29.75
2023-02-08T07:19:08.225Z,32.20
2023-02-08T07:21:34.652Z,33.00
2023-02-08T07:24:01.045Z,34.58
2023-02-08T07:26:27.507Z,34.35
2023-02-08T07:28:53.880Z,34.40
2023-02-08T07:31:20.380Z,35.75
2023-02-08T07:33:46.832Z,35.30
2023-02-08T07:36:13.336Z,35.95
2023-02-08T07:38:39.848Z,36.20
2023-02-08T07:41:10.154Z,36.78
2023-02-08T07:43:38.398Z,37.08
2023-02-08T07:46:20.364Z,39.33
2023-02-08T07:48:49.794Z,39.60
2023-02-08T07:51:16.603Z,40.38
2023-02-08T07:53:43.213Z,41.78
2023-02-08T07:56:10.324Z,43.88
2023-02-08T07:58:37.157Z,45.30
2023-02-08T08:01:19.704Z,45.50
2023-02-08T08:03:49.121Z,41.95
2023-02-08T08:06:15.570Z,46.40
2023-02-08T08:08:43.152Z,46.70
2023-02-08T08:11:09.543Z,46.83
2023-02-08T08:13:35.913Z,46.33
2023-02-08T08:16:02.416Z,48.33
2023-02-08T08:18:29.200Z,48.50
2023-02-08T08:20:55.722Z,49.50
2023-02-08T08:23:23.682Z,49.72
2023-02-08T08:25:50.134Z,49.80
2023-02-08T08:28:16.953Z,51.50
2023-02-08T08:30:44.631Z,51.75
2023-02-08T08:33:13.788Z,51.03
2023-02-08T08:35:41.116Z,52.10
2023-02-08T08:38:07.503Z,50.90
2023-02-08T08:40:33.896Z,52.25
2023-02-08T08:43:00.297Z,50.47
2023-02-08T08:45:26.992Z,50.00
2023-02-08T08:47:53.487Z,49.33
2023-02-08T08:50:19.962Z,45.45
2023-02-08T08:52:46.472Z,42.40
2023-02-08T08:55:13.016Z,32.97
2023-02-08T08:57:39.391Z,28.67
2023-02-08T09:00:06.152Z,17.88
2023-02-08T09:02:32.832Z,14.70
2023-02-08T09:05:00.225Z,13.18
2023-02-08T09:07:26.715Z,12.88
2023-02-08T09:09:53.332Z,12.10
2023-02-08T09:12:19.808Z,11.77
2023-02-08T09:14:46.276Z,11.55
2023-02-08T09:17:13.229Z,10.48
2023-02-08T09:19:39.630Z,9.23
2023-02-08T09:22:07.362Z,9.48
2023-02-08T09:24:34.429Z,9.32
2023-02-08T09:27:00.871Z,8.70
2023-02-08T09:29:30.099Z,8.35
2023-02-08T09:31:57.117Z,9.00
2023-02-08T09:34:23.878Z,8.93
2023-02-08T09:36:50.660Z,11.23
2023-02-08T09:39:19.789Z,10.27
2023-02-08T09:42:17.017Z,9.07
2023-02-08T09:45:18.145Z,7.82
2023-02-08T09:48:02.892Z,9.60
2023-02-08T09:50:37.192Z,9.32
2023-02-08T09:53:20.184Z,9.77
2023-02-08T09:55:50.107Z,9.57
2023-02-08T09:58:23.263Z,9.60
2023-02-08T10:00:51.586Z,11.85
2023-02-08T10:03:31.172Z,18.60
2023-02-08T10:05:58.098Z,64.07
2023-02-08T10:08:34.889Z,67.68
2023-02-08T10:11:07.829Z,8.70
2023-02-08T10:13:43.935Z,13.45
2023-02-08T10:16:29.578Z,12.90
2023-02-08T10:18:55.920Z,13.68
2023-02-08T10:22:01.021Z,14.07
2023-02-08T10:25:19.870Z,13.88
2023-02-08T10:28:06.791Z,33.50
2023-02-08T10:30:53.327Z,21.50
2023-02-08T10:33:42.066Z,38.78
2023-02-08T10:36:19.506Z,36.75
2023-02-08T10:38:51.006Z,49.58
2023-02-08T10:41:23.107Z,7.22
2023-02-08T10:43:59.502Z,7.10
2023-02-08T10:46:32.231Z,6.20
2023-02-08T10:49:16.759Z,9.40
2023-02-08T10:51:45.172Z,13.18
2023-02-08T10:54:13.768Z,16.23
2023-02-08T10:57:16.528Z,14.38
2023-02-08T10:59:53.235Z,8.38
2023-02-08T11:02:26.708Z,22.17
2023-02-08T11:07:31.819Z,8.40
2023-02-08T11:10:20.089Z,7.13
2023-02-08T11:12:58.999Z,6.13
2023-02-08T11:15:37.937Z,5.85
2023-02-08T11:18:07.337Z,6.07
2023-02-08T11:20:40.306Z,5.30
2023-02-08T11:23:21.810Z,5.00
2023-02-08T11:25:48.290Z,6.25
2023-02-08T11:28:30.241Z,41.15
2023-02-08T11:31:02.141Z,43.00
2023-02-08T11:33:31.667Z,8.13
2023-02-08T11:36:05.431Z,6.97
2023-02-08T11:38:34.544Z,5.95
2023-02-08T11:41:04.340Z,5.22
2023-02-08T11:43:35.771Z,5.78
2023-02-08T11:46:05.387Z,5.07
2023-02-08T11:48:45.205Z,5.45
2023-02-08T11:51:22.535Z,5.13
2023-02-08T11:53:49.178Z,4.57
2023-02-08T11:56:21.318Z,4.38
2023-02-08T11:59:09.691Z,4.05
2023-02-08T12:01:38.399Z,4.28
2023-02-08T12:04:07.913Z,4.07
2023-02-08T12:06:52.491Z,4.28
2023-02-08T12:09:19.035Z,4.60
2023-02-08T12:11:48.177Z,3.95
2023-02-08T12:14:39.481Z,4.25
2023-02-08T12:17:20.825Z,3.90
2023-02-08T12:20:36.387Z,3.90
2023-02-08T12:23:29.635Z,4.07
2023-02-08T12:26:17.730Z,4.95
2023-02-08T12:28:54.795Z,4.95
2023-02-08T12:31:37.939Z,4.18
2023-02-08T12:34:44.751Z,3.55
2023-02-08T12:38:00.076Z,4.32
2023-02-08T12:41:06.052Z,5.75
2023-02-08T12:43:46.061Z,4.55
2023-02-08T12:46:21.446Z,3.78
2023-02-08T12:49:11.448Z,3.55
2023-02-08T12:51:43.840Z,3.80
2023-02-08T12:54:15.236Z,3.78
2023-02-08T12:56:50.921Z,4.38
2023-02-08T12:59:33.822Z,4.18
2023-02-08T13:02:11.788Z,4.28
2023-02-08T13:04:44.088Z,4.47
2023-02-08T13:07:20.629Z,4.50
2023-02-08T13:10:03.293Z,4.57
2023-02-08T13:12:35.685Z,4.20
2023-02-08T13:15:11.902Z,4.10
2023-02-08T13:17:51.816Z,4.50
2023-02-08T13:20:33.221Z,3.92
2023-02-08T13:23:52.869Z,3.50
2023-02-08T13:26:26.428Z,3.80
2023-02-08T13:28:55.775Z,4.05
2023-02-08T13:31:35.944Z,3.80
2023-02-08T13:34:14.376Z,3.85
2023-02-08T13:36:51.382Z,3.80
2023-02-08T13:39:35.337Z,3.50
2023-02-08T13:42:04.575Z,3.72
2023-02-08T13:44:37.656Z,3.78
2023-02-08T13:47:06.571Z,4.00
2023-02-08T13:49:50.291Z,3.53
2023-02-08T13:55:34.235Z,3.88
2023-02-08T13:58:03.271Z,3.78
2023-02-08T14:00:32.947Z,4.10
2023-02-08T14:03:01.092Z,4.20
2023-02-08T14:05:33.359Z,3.88
2023-02-08T14:08:02.801Z,3.80
2023-02-08T14:10:41.560Z,3.75
2023-02-08T14:13:32.459Z,3.63
2023-02-08T14:16:23.952Z,3.30
2023-02-08T14:18:56.249Z,3.85
2023-02-08T14:21:34.864Z,3.55
2023-02-08T14:24:05.100Z,4.13
2023-02-08T14:26:32.088Z,5.20
2023-02-08T14:29:01.709Z,5.05
2023-02-08T14:31:41.697Z,4.22
2023-02-08T14:34:34.804Z,4.82
2023-02-08T14:37:24.505Z,4.28
2023-02-08T14:40:16.673Z,4.05
2023-02-08T14:42:53.872Z,3.72
2023-02-08T14:45:35.088Z,3.65
2023-02-08T14:48:37.074Z,4.10
2023-02-08T14:51:12.269Z,4.20
2023-02-08T14:53:41.651Z,3.95
2023-02-08T14:56:33.220Z,4.13
2023-02-08T14:59:12.197Z,4.10
2023-02-08T15:01:51.173Z,4.00
2023-02-08T15:04:20.503Z,3.78
2023-02-08T15:07:02.263Z,3.85
2023-02-08T15:09:31.261Z,4.43
2023-02-08T15:12:04.565Z,4.47
2023-02-08T15:14:35.239Z,4.10
2023-02-08T15:17:02.244Z,3.95
2023-02-08T15:19:34.437Z,4.05
2023-02-08T15:22:35.927Z,4.22
2023-02-08T15:25:20.272Z,3.85
2023-02-08T15:27:55.640Z,3.97
2023-02-08T15:30:23.457Z,4.13
2023-02-08T15:32:49.967Z,4.32
2023-02-08T15:35:20.092Z,4.28
2023-02-08T15:37:47.326Z,4.00
2023-02-08T15:40:29.430Z,4.25
2023-02-08T15:43:03.663Z,4.10
2023-02-08T15:45:30.672Z,4.13
2023-02-08T15:47:58.757Z,4.28
2023-02-08T15:50:27.001Z,4.20
2023-02-08T15:53:02.465Z,4.00
2023-02-08T15:55:35.950Z,4.10
2023-02-08T15:58:07.701Z,4.00
2023-02-08T16:00:37.798Z,4.32
2023-02-08T16:03:15.972Z,4.07
2023-02-08T16:05:49.523Z,4.72
2023-02-08T16:08:22.236Z,4.20
2023-02-08T16:10:52.698Z,4.97
2023-02-08T16:13:28.777Z,4.32
2023-02-08T16:16:15.982Z,5.00
2023-02-08T16:18:50.281Z,4.90
2023-02-08T16:21:38.302Z,4.55
2023-02-08T16:24:10.615Z,4.38
2023-02-08T16:26:42.976Z,4.20
2023-02-08T16:29:39.495Z,4.60
2023-02-08T16:32:13.265Z,5.05
2023-02-08T16:34:40.749Z,4.70
2023-02-08T16:37:23.078Z,4.35
2023-02-08T16:40:30.942Z,4.22
2023-02-08T16:43:16.874Z,4.93
2023-02-08T16:45:43.263Z,5.20
2023-02-08T16:48:40.590Z,5.50
2023-02-08T16:51:31.807Z,5.28
2023-02-08T16:54:07.370Z,5.57
2023-02-08T16:56:37.612Z,5.85
2023-02-08T16:59:05.242Z,5.97
2023-02-08T17:01:33.279Z,5.40
2023-02-08T17:04:00.142Z,6.45
2023-02-08T17:06:36.930Z,5.90
2023-02-08T17:09:05.910Z,6.03
2023-02-08T17:11:32.624Z,6.47
2023-02-08T17:13:59.424Z,6.20
2023-02-08T17:16:29.332Z,6.00
2023-02-08T17:18:56.980Z,5.53
2023-02-08T17:21:23.501Z,7.18
2023-02-08T17:23:50.121Z,6.47
2023-02-08T17:26:20.310Z,6.53
2023-02-08T17:28:46.712Z,6.78
2023-02-08T17:31:14.648Z,6.18
2023-02-08T17:33:41.187Z,7.38
2023-02-08T17:36:12.903Z,7.03
2023-02-08T17:38:40.494Z,7.30
2023-02-08T17:41:13.368Z,7.25
2023-02-08T17:43:39.805Z,7.97
2023-02-08T17:46:16.323Z,7.90
2023-02-08T17:48:43.335Z,8.90
2023-02-08T17:51:16.429Z,9.20
2023-02-08T17:53:44.450Z,9.40
2023-02-08T17:56:16.186Z,9.57
2023-02-08T17:58:43.448Z,11.23
2023-02-08T18:01:17.088Z,10.10
2023-02-08T18:03:47.851Z,10.13
2023-02-08T18:06:14.909Z,10.40
2023-02-08T18:08:42.211Z,10.23
2023-02-08T18:11:12.856Z,10.13
2023-02-08T18:13:39.654Z,10.50
2023-02-08T18:16:12.567Z,11.40
2023-02-08T18:18:39.378Z,11.10
2023-02-08T18:21:13.962Z,10.77
2023-02-08T18:23:41.284Z,10.85
2023-02-08T18:26:20.034Z,9.88
2023-02-08T18:28:47.029Z,9.40
2023-02-08T18:31:16.808Z,8.32
2023-02-08T18:33:43.981Z,8.48
2023-02-08T18:36:11.529Z,10.07
2023-02-08T18:38:40.537Z,9.60
2023-02-08T18:41:09.617Z,9.43
2023-02-08T18:43:37.101Z,10.20
2023-02-08T18:46:06.533Z,10.65
2023-02-08T18:48:33.170Z,11.20
2023-02-08T18:51:02.962Z,12.18
2023-02-08T18:53:31.915Z,11.52
2023-02-08T18:56:00.580Z,9.35
2023-02-08T18:58:27.124Z,5.80
2023-02-08T19:00:54.222Z,4.97
2023-02-08T19:03:22.046Z,5.32
2023-02-08T19:05:48.837Z,5.20
2023-02-08T19:08:20.405Z,5.70
2023-02-08T19:10:46.803Z,5.13
2023-02-08T19:13:13.238Z,5.80
2023-02-08T19:15:40.634Z,5.80
2023-02-08T19:18:07.981Z,6.20
2023-02-08T19:20:36.335Z,6.57
2023-02-08T19:23:06.248Z,6.88
2023-02-08T19:25:37.342Z,8.32
2023-02-08T19:28:04.779Z,8.32
2023-02-08T19:30:31.269Z,9.50
2023-02-08T19:32:57.705Z,9.43
2023-02-08T19:35:24.593Z,9.20
2023-02-08T19:37:52.540Z,9.60
2023-02-08T19:40:20.279Z,9.35
2023-02-08T19:42:46.748Z,9.18
2023-02-08T19:45:14.026Z,9.10
2023-02-08T19:47:51.125Z,9.02
2023-02-08T19:50:18.020Z,8.63
2023-02-08T19:52:44.394Z,8.35
2023-02-08T19:55:10.943Z,8.75
2023-02-08T19:57:39.833Z,9.13
2023-02-08T20:00:14.287Z,9.05
2023-02-08T20:02:47.889Z,9.07
2023-02-08T20:05:14.320Z,8.85
2023-02-08T20:07:41.128Z,9.02
2023-02-08T20:10:08.081Z,8.43
2023-02-08T20:12:34.569Z,6.95
2023-02-08T20:15:01.096Z,7.63
2023-02-08T20:17:27.509Z,7.28
2023-02-08T20:19:53.889Z,6.90
2023-02-08T20:22:20.431Z,6.15
2023-02-08T20:24:46.838Z,6.30
2023-02-08T20:27:13.399Z,6.20
2023-02-08T20:29:39.774Z,5.82
2023-02-08T20:32:06.229Z,6.32
2023-02-08T20:34:32.638Z,6.38
2023-02-08T20:37:08.307Z,6.20
2023-02-08T20:39:35.816Z,6.65
2023-02-08T20:42:02.462Z,6.40
2023-02-08T20:44:28.937Z,6.85
2023-02-08T20:46:55.527Z,6.55
2023-02-08T20:49:25.280Z,6.45
2023-02-08T20:51:53.199Z,6.68
2023-02-08T20:54:19.719Z,7.10
2023-02-08T20:56:46.164Z,7.07
2023-02-08T20:59:15.603Z,6.90
2023-02-08T21:01:43.779Z,6.90
2023-02-08T21:04:11.526Z,6.50
2023-02-08T21:06:39.560Z,6.75
2023-02-08T21:09:08.782Z,7.03
2023-02-08T21:11:35.874Z,6.60
2023-02-08T21:14:02.746Z,6.82
2023-02-08T21:16:29.831Z,6.88
2023-02-08T21:18:59.516Z,7.00
2023-02-08T21:21:27.898Z,6.82
2023-02-08T21:23:56.541Z,7.05
2023-02-08T21:26:24.241Z,8.50
2023-02-08T21:28:55.797Z,7.75
2023-02-08T21:31:23.493Z,8.02
2023-02-08T21:33:50.591Z,8.23
2023-02-08T21:36:20.819Z,7.53
2023-02-08T21:38:47.588Z,8.00
2023-02-08T21:41:21.961Z,8.13
2023-02-08T21:43:50.071Z,7.50
2023-02-08T21:46:17.287Z,7.75
2023-02-08T21:49:02.860Z,7.63
2023-02-08T21:51:48.159Z,7.47
2023-02-08T21:54:29.481Z,7.95
2023-02-08T21:56:58.669Z,7.50
2023-02-08T21:59:25.396Z,10.43
2023-02-08T22:01:51.796Z,11.57
2023-02-08T22:04:18.177Z,10.00
2023-02-08T22:06:44.814Z,10.15
2023-02-08T22:09:11.243Z,8.10
2023-02-08T22:11:37.657Z,8.00
2023-02-08T22:14:04.037Z,8.00
2023-02-08T22:16:30.473Z,8.05
2023-02-08T22:18:56.826Z,7.97
2023-02-08T22:21:23.379Z,7.05
2023-02-08T22:23:49.729Z,7.82
2023-02-08T22:26:16.128Z,7.35
2023-02-08T22:28:42.755Z,7.90
2023-02-08T22:31:09.220Z,7.25
2023-02-08T22:33:36.049Z,7.18
2023-02-08T22:36:06.628Z,7.78
2023-02-08T22:38:32.998Z,8.02
2023-02-08T22:40:59.402Z,8.27
2023-02-08T22:43:25.790Z,8.27
2023-02-08T22:45:59.763Z,8.07
2023-02-08T22:48:27.328Z,7.60
2023-02-08T22:50:53.807Z,7.47
2023-02-08T22:53:20.926Z,7.22
2023-02-08T22:55:52.757Z,8.18
2023-02-08T22:58:19.306Z,8.10
2023-02-08T23:00:47.583Z,7.50
2023-02-08T23:03:15.435Z,7.88
2023-02-08T23:05:43.421Z,6.40
2023-02-08T23:08:10.323Z,7.18
2023-02-08T23:10:36.793Z,7.32
2023-02-08T23:13:04.750Z,7.38
2023-02-08T23:15:31.990Z,6.95
2023-02-08T23:17:58.945Z,6.82
2023-02-08T23:20:26.773Z,6.78
2023-02-08T23:22:53.229Z,6.22
2023-02-08T23:25:19.873Z,7.18
2023-02-08T23:27:46.362Z,6.75
2023-02-08T23:30:12.939Z,6.72
2023-02-08T23:32:39.317Z,6.10
2023-02-08T23:35:06.414Z,6.55
2023-02-08T23:37:32.939Z,6.80
2023-02-08T23:39:59.968Z,6.80
2023-02-08T23:42:26.464Z,7.10
2023-02-08T23:44:53.751Z,7.60
2023-02-08T23:47:20.794Z,7.22
2023-02-08T23:49:47.344Z,8.02
2023-02-08T23:52:14.323Z,7.35
2023-02-08T23:54:40.920Z,7.38
2023-02-08T23:57:07.346Z,6.82
2023-02-08T23:59:33.873Z,8.48
